Etusivu
METAR-TAF:

METAR-TAF

Lentoasemat :

Illizi, Algeria

Leveyspiiri: 26-30N, Pituuspiiri: 008-25E, korkeus merenpinnasta: 558 m

Tämänhetkinen sää

Tämä raportti tehtiin 51 minuuttia sitten, kello 00.00 UTC
Tuuli 4 kn idästä
Lämpötila 28°C
Kosteus 11%
Ilmanpaine 1015 hPa
Näkyvyys 10 km tai enemmän
ei pilviä alle 1500 m:ssä eikä cumulonimbus-pilviä

METAR: DAAP 180000Z 10004KT CAVOK 28/M05 Q1015

Aika: 01:51 (00:51 UTC)

Sääennuste

Tämä raportti tehtiin 1 tunti ja 51 minuuttia sitten, kello 23.00 UTC
Ennuste voimassa 18. päivästä klo 00 UTC - 18. päivään klo 09 UTC
Tuuli 10 kn idästä
Näkyvyys 10 km tai enemmän
ei pilviä alle 1500 m:ssä eikä cumulonimbus-pilviä

TAF: DAAP 172300Z 1800/1809 10010KT CAVOK

Säähavainnot ja -ennusteet yli 4000 lentoasemalta (METAR- ja TAF-raportit).

Käytössä olevat sääasemat on merkitty karttaan keltaisilla ja punaisilla pisteillä.

Aseta hiiri pisteen päälle nähdäksesi sääaseman nimen.

Klikkaa sitten nähdäksesi säähavainnot ja -ennusteet.

Kartan vaihtaminen: klikkaa mustalla rastilla varustettuja vihreitä pisteitä, niin voit zoomata sisään; viivalla varustettua vihreää pistettä, niin voit zoomata ulos tai vihreitä nuolia, niin pääset viereisille kartoille.


METAR-TAF: